Time;durP1;ratioP1;P1;durP2;ratioP2;P2;SDS_P1;SDS_P2;PMS_P1;PMS_P2;Temp;Humidity;BMP_temperature;BMP_pressure;BME280_temperature;BME280_humidity;BME280_pressure;Samples;Min_cycle;Max_cycle;Signal;HPM_P1;HPM_P2
2022/12/13 00:01:13;;;;;;;35.70;15.57;;;;;;;-4.47;81.04;101066.41;5055017;28;20036;-66
2022/12/13 00:03:38;;;;;;;32.08;16.15;;;;;;;-4.43;80.98;101068.13;5056279;28;20060;-67
2022/12/13 00:06:06;;;;;;;29.85;14.13;;;;;;;-4.43;81.07;101062.88;5036845;28;20044;-66
2022/12/13 00:08:31;;;;;;;31.10;15.05;;;;;;;-4.44;81.19;101061.97;5053907;28;20105;-66
2022/12/13 00:11:02;;;;;;;30.85;14.98;;;;;;;-4.47;80.83;101064.63;5038787;28;20029;-67
2022/12/13 00:13:28;;;;;;;32.20;16.38;;;;;;;-4.50;80.78;101059.41;5055819;28;20104;-66
2022/12/13 00:15:58;;;;;;;27.75;14.00;;;;;;;-4.56;80.90;101068.19;5037339;28;20029;-66
2022/12/13 00:18:23;;;;;;;32.80;14.95;;;;;;;-4.56;80.95;101060.31;5055540;28;20032;-66
2022/12/13 00:20:49;;;;;;;31.08;15.32;;;;;;;-4.56;81.03;101056.84;5052140;28;20094;-67
2022/12/13 00:23:14;;;;;;;32.17;14.32;;;;;;;-4.53;81.05;101055.97;5056185;28;20101;-67
2022/12/13 00:25:39;;;;;;;35.13;15.15;;;;;;;-4.55;80.84;101058.59;5055445;28;20024;-67
2022/12/13 00:28:04;;;;;;;29.40;14.50;;;;;;;-4.56;80.87;101056.84;5055332;28;20388;-67
2022/12/13 00:30:32;;;;;;;31.35;13.80;;;;;;;-4.59;80.51;101052.47;5056579;28;20139;-66
2022/12/13 00:32:58;;;;;;;27.60;13.00;;;;;;;-4.61;80.33;101062.13;5055164;28;20506;-67
2022/12/13 00:35:23;;;;;;;34.72;15.68;;;;;;;-4.63;80.35;101056.00;5054416;28;20029;-67
2022/12/13 00:37:48;;;;;;;29.55;15.10;;;;;;;-4.68;80.04;101057.81;5048936;28;20447;-66
2022/12/13 00:40:14;;;;;;;31.52;14.88;;;;;;;-4.72;80.25;101057.84;5055718;28;20033;-66
2022/12/13 00:42:39;;;;;;;31.20;14.20;;;;;;;-4.75;80.64;101062.22;5054370;28;20480;-68
2022/12/13 00:45:04;;;;;;;35.00;15.50;;;;;;;-4.76;80.93;101055.25;5054966;28;20499;-67
2022/12/13 00:47:30;;;;;;;30.30;14.02;;;;;;;-4.78;80.52;101053.50;5034653;28;20032;-66
2022/12/13 00:49:56;;;;;;;32.97;16.48;;;;;;;-4.78;80.54;101058.75;5055003;28;20021;-67
2022/12/13 00:52:21;;;;;;;30.13;14.05;;;;;;;-4.79;80.34;101055.28;5055480;28;20071;-68
2022/12/13 00:54:46;;;;;;;30.40;15.13;;;;;;;-4.78;80.59;101053.50;5035492;28;20021;-67
2022/12/13 00:57:11;;;;;;;32.25;15.80;;;;;;;-4.80;80.91;101050.91;5055530;28;20037;-67
2022/12/13 00:59:37;;;;;;;31.65;17.00;;;;;;;-4.80;80.87;101050.00;5036678;28;20140;-66
2022/12/13 01:02:02;;;;;;;32.78;14.93;;;;;;;-4.79;81.16;101038.66;5054332;28;20657;-67
2022/12/13 01:04:28;;;;;;;34.40;16.08;;;;;;;-4.81;80.85;101046.53;5034134;28;20097;-67
2022/12/13 01:06:54;;;;;;;34.50;16.48;;;;;;;-4.83;80.56;101045.69;5049217;28;20104;-67
2022/12/13 01:09:26;;;;;;;32.35;14.60;;;;;;;-4.87;80.80;101049.19;5053723;28;20075;-67
2022/12/13 01:11:58;;;;;;;28.08;14.38;;;;;;;-4.88;80.14;101047.44;5054132;28;20024;-66
2022/12/13 01:14:25;;;;;;;25.95;13.43;;;;;;;-4.86;80.46;101043.09;5036576;28;20048;-66
2022/12/13 01:16:54;;;;;;;26.80;14.15;;;;;;;-4.81;80.32;101040.41;5054943;28;20076;-67
2022/12/13 01:19:20;;;;;;;33.47;15.18;;;;;;;-4.76;80.73;101025.50;5036750;28;20400;-66
2022/12/13 01:21:45;;;;;;;34.15;15.45;;;;;;;-4.73;80.89;101028.09;5036087;28;20067;-66
2022/12/13 01:24:11;;;;;;;30.33;13.73;;;;;;;-4.70;80.44;101030.75;5034766;28;20544;-68
2022/12/13 01:26:37;;;;;;;30.85;14.05;;;;;;;-4.68;79.95;101030.72;5036905;28;20492;-67
2022/12/13 01:29:04;;;;;;;30.17;13.77;;;;;;;-4.69;80.39;101029.84;5052701;28;20108;-67
2022/12/13 01:31:30;;;;;;;34.78;14.35;;;;;;;-4.68;80.21;101023.72;5050339;28;20013;-67
2022/12/13 01:33:55;;;;;;;30.25;14.65;;;;;;;-4.71;79.82;101034.22;5053077;28;20036;-66
2022/12/13 01:36:22;;;;;;;30.67;14.38;;;;;;;-4.76;80.07;101036.88;5053904;28;20067;-67
2022/12/13 01:38:47;;;;;;;28.10;13.30;;;;;;;-4.80;79.97;101034.28;5054048;28;20074;-67
2022/12/13 01:41:18;;;;;;;32.90;13.88;;;;;;;-4.82;79.79;101042.16;5035807;28;20037;-67
2022/12/13 01:43:46;;;;;;;29.15;14.32;;;;;;;-4.85;79.52;101043.94;5054936;28;20068;-69
2022/12/13 01:46:13;;;;;;;28.95;14.02;;;;;;;-4.93;79.51;101047.47;5055330;28;20033;-67
2022/12/13 01:48:43;;;;;;;30.73;14.57;;;;;;;-4.93;79.70;101046.63;5054517;28;20119;-67
2022/12/13 01:51:11;;;;;;;30.15;12.77;;;;;;;-4.99;79.95;101044.00;5055670;28;20024;-67
2022/12/13 01:53:41;;;;;;;32.92;15.38;;;;;;;-5.03;79.93;101051.03;5037413;28;20021;-68
2022/12/13 01:56:13;;;;;;;29.17;13.50;;;;;;;-5.01;79.99;101048.41;5054104;28;20025;-67
2022/12/13 01:58:40;;;;;;;30.80;14.82;;;;;;;-5.01;79.53;101049.25;5055094;28;20033;-66
2022/12/13 02:01:05;;;;;;;33.78;15.45;;;;;;;-4.95;79.96;101049.25;5034682;28;20043;-66
2022/12/13 02:03:33;;;;;;;31.45;14.20;;;;;;;-4.92;79.97;101043.09;5053270;28;20029;-67
2022/12/13 02:06:04;;;;;;;29.90;14.57;;;;;;;-4.93;79.57;101044.84;5054378;28;20028;-67
2022/12/13 02:08:30;;;;;;;29.88;13.10;;;;;;;-4.89;79.71;101042.22;5054565;28;20029;-66
2022/12/13 02:10:57;;;;;;;28.35;12.90;;;;;;;-4.86;80.21;101039.56;5036207;28;20044;-67
2022/12/13 02:13:22;;;;;;;32.42;13.27;;;;;;;-4.86;79.80;101037.84;5053362;28;20032;-67
2022/12/13 02:16:06;;;;;;;31.92;14.75;;;;;;;-4.83;80.11;101042.16;5053747;28;20107;-66
2022/12/13 02:19:09;;;;;;;29.63;13.05;;;;;;;-4.83;79.86;101036.91;5027185;28;20035;-67
2022/12/13 02:22:09;;;;;;;29.67;13.82;;;;;;;-4.89;79.81;101037.88;5057064;28;20033;-67
2022/12/13 02:25:22;;;;;;;31.85;14.30;;;;;;;-4.95;80.15;101037.88;5035123;28;20487;-66
2022/12/13 02:28:06;;;;;;;30.10;12.38;;;;;;;-4.98;80.33;101038.78;5056856;28;20037;-67
2022/12/13 02:30:40;;;;;;;32.05;13.73;;;;;;;-5.01;80.30;101038.78;5054885;28;20056;-66
2022/12/13 02:33:20;;;;;;;31.33;14.40;;;;;;;-5.02;80.45;101038.78;5056639;28;20385;-67
2022/12/13 02:35:58;;;;;;;28.75;13.63;;;;;;;-5.03;80.54;101044.94;5056105;28;20075;-66
2022/12/13 02:38:32;;;;;;;32.00;14.00;;;;;;;-5.03;80.62;101034.44;5053871;28;20025;-66
2022/12/13 02:41:12;;;;;;;35.28;14.98;;;;;;;-4.97;81.05;101034.41;5039154;28;20040;-67
2022/12/13 02:43:46;;;;;;;30.52;13.23;;;;;;;-4.95;81.53;101028.28;5056884;28;20021;-67
2022/12/13 02:46:15;;;;;;;33.67;14.88;;;;;;;-4.94;81.13;101024.75;5057333;28;20108;-67
2022/12/13 02:48:41;;;;;;;33.03;15.70;;;;;;;-4.95;81.04;101023.03;5057340;28;20036;-68
2022/12/13 02:51:10;;;;;;;34.20;13.70;;;;;;;-4.96;80.40;101017.81;5036624;28;20048;-67
2022/12/13 02:53:39;;;;;;;31.63;13.00;;;;;;;-4.98;80.41;101020.44;5054184;28;20088;-66
2022/12/13 02:56:04;;;;;;;28.67;12.40;;;;;;;-5.02;79.94;101016.09;5039289;28;20025;-68
2022/12/13 02:58:34;;;;;;;29.88;13.95;;;;;;;-5.02;80.06;101016.09;5038561;28;20056;-67
2022/12/13 03:01:11;;;;;;;;;;;;;;;-4.94;80.60;101008.16;5057467;28;20048;-70
2022/12/13 03:03:49;;;;;;;31.92;12.80;;;;;;;-5.00;80.51;101005.59;5055891;28;19912;-66
2022/12/13 03:06:37;;;;;;;29.75;13.98;;;;;;;-4.97;80.97;101011.69;5027651;28;20057;-66
2022/12/13 03:09:25;;;;;;;34.63;15.00;;;;;;;-4.93;81.16;101002.91;5056572;28;20032;-66
2022/12/13 03:14:59;;;;;;;27.60;12.32;;;;;;;-4.96;81.56;101005.56;5057858;28;20056;-67
2022/12/13 03:17:26;;;;;;;30.90;14.73;;;;;;;-4.95;81.55;101006.41;5056157;28;20116;-67
2022/12/13 03:19:53;;;;;;;35.88;16.05;;;;;;;-4.96;81.63;101008.19;5056237;28;20522;-66
2022/12/13 03:22:18;;;;;;;28.70;14.98;;;;;;;-4.93;81.33;101000.28;5054778;28;20056;-66
2022/12/13 03:24:44;;;;;;;30.60;13.82;;;;;;;-4.91;81.59;101010.75;5055710;28;20036;-67
2022/12/13 03:27:10;;;;;;;31.65;14.00;;;;;;;-4.89;81.95;101011.66;5056248;28;20036;-67
2022/12/13 03:29:35;;;;;;;29.08;13.77;;;;;;;-4.86;81.62;101006.38;5037980;28;20060;-66
2022/12/13 03:32:00;;;;;;;31.75;13.88;;;;;;;-4.84;81.89;101004.59;5036855;28;20029;-66
2022/12/13 03:34:25;;;;;;;36.65;15.07;;;;;;;-4.80;82.04;101008.06;5039045;28;20088;-67
2022/12/13 03:36:52;;;;;;;28.77;14.10;;;;;;;-4.79;81.73;101010.69;5038076;28;20492;-67
2022/12/13 03:39:18;;;;;;;29.13;13.30;;;;;;;-4.78;81.88;101006.31;5055686;28;20148;-66
2022/12/13 03:41:43;;;;;;;32.85;14.48;;;;;;;-4.79;81.59;101000.22;5057750;28;20571;-66
2022/12/13 03:44:08;;;;;;;34.47;14.57;;;;;;;-4.78;81.59;100998.44;5051782;28;20032;-66
2022/12/13 03:46:34;;;;;;;29.67;13.07;;;;;;;-4.81;81.47;100998.47;5057647;28;20063;-66
2022/12/13 03:48:59;;;;;;;31.33;13.30;;;;;;;-4.81;81.06;101001.94;5039965;28;20358;-67
2022/12/13 03:51:24;;;;;;;35.47;14.50;;;;;;;-4.83;81.26;101002.84;5057981;28;20025;-66
2022/12/13 03:53:50;;;;;;;27.20;12.95;;;;;;;-4.84;80.71;100998.50;5040327;28;20085;-66
2022/12/13 03:56:15;;;;;;;29.60;14.05;;;;;;;-4.86;80.40;100998.50;5057644;28;20392;-67
2022/12/13 03:58:43;;;;;;;33.05;13.75;;;;;;;-4.86;80.55;100995.00;5057074;28;20033;-67
2022/12/13 04:01:14;;;;;;;32.40;15.05;;;;;;;-4.86;80.64;100995.00;5057278;28;20037;-67
2022/12/13 04:03:42;;;;;;;33.55;14.10;;;;;;;-4.84;80.95;100993.25;5057264;28;20036;-67
2022/12/13 04:06:07;;;;;;;32.63;13.05;;;;;;;-4.81;80.81;100993.22;5057441;28;20029;-66
2022/12/13 04:08:34;;;;;;;38.65;16.20;;;;;;;-4.83;80.83;100992.34;5049987;28;20534;-68
2022/12/13 04:13:31;;;;;;;30.08;14.00;;;;;;;-4.84;80.96;100993.25;5055190;28;20043;-67
2022/12/13 04:13:45;;;;;;;28.75;14.50;;;;;;;-4.85;81.38;100988.88;5056334;28;20036;-67
2022/12/13 04:16:10;;;;;;;30.58;13.65;;;;;;;-4.83;81.10;100989.72;5056528;28;20035;-66
2022/12/13 04:18:35;;;;;;;35.30;15.10;;;;;;;-4.82;81.66;100987.09;5055736;28;20025;-67
2022/12/13 04:21:01;;;;;;;28.83;13.07;;;;;;;-4.77;81.95;100974.84;5056658;28;20044;-66
2022/12/13 04:23:26;;;;;;;31.23;14.68;;;;;;;-4.75;82.76;100980.94;5056241;28;20421;-67
2022/12/13 04:25:51;;;;;;;32.70;14.35;;;;;;;-4.71;83.16;100981.78;5050354;28;20135;-67
2022/12/13 04:28:17;;;;;;;28.98;13.23;;;;;;;-4.66;82.97;100976.50;5037662;28;20039;-67
2022/12/13 04:30:42;;;;;;;28.75;12.63;;;;;;;-4.66;82.73;100974.72;5056218;28;20046;-67
2022/12/13 04:33:07;;;;;;;33.45;15.73;;;;;;;-4.63;82.86;100984.34;5056065;28;20034;-67
2022/12/13 04:35:33;;;;;;;30.63;14.57;;;;;;;-4.62;83.72;100978.22;5057052;28;20116;-67
2022/12/13 04:37:58;;;;;;;30.42;13.20;;;;;;;-4.62;82.60;100984.31;5054328;28;20036;-67
2022/12/13 04:40:23;;;;;;;31.77;14.38;;;;;;;-4.62;82.79;100984.31;5054290;28;20120;-66
2022/12/13 04:42:49;;;;;;;32.15;14.18;;;;;;;-4.64;82.55;100975.63;5036561;28;20112;-66
2022/12/13 04:45:16;;;;;;;31.85;15.27;;;;;;;-4.65;82.25;100976.47;5054825;28;20024;-66
2022/12/13 04:47:41;;;;;;;31.77;14.50;;;;;;;-4.59;82.62;100978.19;5037240;28;20029;-66
2022/12/13 04:50:07;;;;;;;32.10;14.10;;;;;;;-4.59;82.40;100968.56;5054646;28;20078;-66
2022/12/13 04:52:32;;;;;;;29.20;12.98;;;;;;;-4.59;82.30;100967.69;5055822;28;20074;-67
2022/12/13 04:54:57;;;;;;;33.63;16.63;;;;;;;-4.61;82.70;100974.72;5055716;28;20033;-66
2022/12/13 04:57:23;;;;;;;29.85;13.15;;;;;;;-4.63;82.51;100969.47;5056263;28;20029;-66
2022/12/13 04:59:48;;;;;;;32.42;15.43;;;;;;;-4.65;82.74;100968.63;5055853;28;20524;-66
2022/12/13 05:02:13;;;;;;;28.58;13.40;;;;;;;-4.65;82.67;100967.75;5036541;28;20028;-67
2022/12/13 05:04:39;;;;;;;31.25;13.90;;;;;;;-4.66;82.40;100972.13;5037043;28;20041;-66
2022/12/13 05:07:04;;;;;;;31.63;14.88;;;;;;;-4.66;82.54;100969.50;5036214;28;20051;-66
2022/12/13 05:09:30;;;;;;;31.80;13.70;;;;;;;-4.64;82.71;100970.38;5053430;28;20480;-68
2022/12/13 05:11:55;;;;;;;32.40;14.30;;;;;;;-4.64;82.79;100965.13;5055123;28;20029;-66
2022/12/13 05:14:20;;;;;;;30.98;13.45;;;;;;;-4.68;82.40;100966.03;5050943;28;20109;-67
2022/12/13 05:16:46;;;;;;;32.10;13.65;;;;;;;-4.66;82.40;100966.88;5030391;28;20182;-66
2022/12/13 05:19:11;;;;;;;31.95;14.27;;;;;;;-4.68;82.40;100962.53;5053863;28;20031;-67
2022/12/13 05:21:37;;;;;;;29.05;13.82;;;;;;;-4.69;81.71;100964.28;5055074;28;20032;-67
2022/12/13 05:24:02;;;;;;;35.38;15.68;;;;;;;-4.71;81.44;100963.44;5055116;28;20499;-67
2022/12/13 05:26:28;;;;;;;34.13;14.15;;;;;;;-4.74;81.74;100960.84;5037051;28;20033;-66
2022/12/13 05:28:56;;;;;;;28.88;13.73;;;;;;;-4.75;81.56;100964.34;5037300;28;20061;-67
2022/12/13 05:31:22;;;;;;;33.38;15.93;;;;;;;-4.82;80.90;100955.63;5055963;28;20017;-67
2022/12/13 05:33:47;;;;;;;30.00;13.27;;;;;;;-4.85;80.86;100949.56;5037055;28;20570;-67
2022/12/13 05:36:12;;;;;;;32.88;14.88;;;;;;;-4.87;81.33;100951.34;5053301;28;20025;-66
2022/12/13 05:38:38;;;;;;;30.63;13.90;;;;;;;-4.94;81.56;100950.50;5056795;28;20029;-66
2022/12/13 05:41:04;;;;;;;31.10;15.38;;;;;;;-4.93;82.20;100947.00;5054930;28;20037;-67
2022/12/13 05:43:29;;;;;;;34.45;15.93;;;;;;;-4.97;82.09;100956.63;5055664;28;20250;-66
2022/12/13 05:45:54;;;;;;;30.38;15.38;;;;;;;-4.97;82.40;100943.53;5057009;28;20028;-67
2022/12/13 05:48:20;;;;;;;32.05;15.55;;;;;;;-4.93;82.68;100942.63;5055239;28;20096;-66
2022/12/13 05:50:45;;;;;;;34.33;16.15;;;;;;;-4.86;83.48;100945.19;5056164;28;20021;-66
2022/12/13 05:53:10;;;;;;;30.63;14.02;;;;;;;-4.85;83.99;100945.19;5042436;28;20433;-66
2022/12/13 05:55:37;;;;;;;32.60;14.77;;;;;;;-4.80;83.84;100945.13;5060987;28;20033;-67
2022/12/13 05:58:03;;;;;;;33.35;15.25;;;;;;;-4.79;83.16;100941.63;5042720;28;20447;-66
2022/12/13 06:00:28;;;;;;;31.55;13.85;;;;;;;-4.76;83.45;100939.88;5057043;28;20028;-67
2022/12/13 06:02:54;;;;;;;30.70;14.25;;;;;;;-4.75;83.52;100944.22;5057683;28;20064;-66
2022/12/13 06:05:19;;;;;;;34.30;16.95;;;;;;;-4.71;84.27;100949.44;5058660;28;20711;-67
2022/12/13 06:07:44;;;;;;;32.55;14.85;;;;;;;-4.69;83.91;100950.31;5053599;28;20029;-67
2022/12/13 06:10:10;;;;;;;31.65;12.65;;;;;;;-4.66;84.15;100951.13;5041397;28;20033;-66
2022/12/13 06:12:36;;;;;;;33.58;13.95;;;;;;;-4.66;83.96;100948.50;5053843;28;20029;-66
2022/12/13 06:15:02;;;;;;;37.03;14.73;;;;;;;-4.68;83.94;100952.06;5057506;28;20192;-66
2022/12/13 06:17:35;;;;;;;31.55;12.93;;;;;;;-4.68;83.61;100952.91;5057857;28;20028;-67
2022/12/13 06:20:03;;;;;;;30.85;12.60;;;;;;;-4.72;83.16;100953.81;5060091;28;20504;-67
2022/12/13 06:22:28;;;;;;;30.85;12.43;;;;;;;-4.71;83.27;100952.94;5059918;28;20036;-66
2022/12/13 06:24:54;;;;;;;30.48;14.30;;;;;;;-4.70;83.57;100953.81;5059077;28;20053;-67
2022/12/13 06:27:20;;;;;;;33.28;14.50;;;;;;;-4.70;83.34;100943.31;5051187;28;20476;-67
2022/12/13 06:29:45;;;;;;;35.75;14.93;;;;;;;-4.69;83.97;100951.16;5058425;28;20076;-67
2022/12/13 06:32:10;;;;;;;30.98;15.82;;;;;;;-4.66;85.00;100945.88;5059534;28;20035;-66
2022/12/13 06:34:36;;;;;;;33.45;15.02;;;;;;;-4.66;84.62;100951.13;5058071;28;20024;-67
2022/12/13 06:37:03;;;;;;;28.52;12.80;;;;;;;-4.61;84.59;100954.59;5028705;28;20091;-66
2022/12/13 06:39:29;;;;;;;31.58;16.23;;;;;;;-4.61;83.91;100953.75;5038527;28;20043;-66
2022/12/13 06:41:55;;;;;;;33.03;15.05;;;;;;;-4.59;85.44;100958.06;5044750;28;20049;-67
2022/12/13 06:44:20;;;;;;;38.17;17.08;;;;;;;-4.56;85.69;100958.03;5069267;28;20507;-67
2022/12/13 06:46:45;;;;;;;32.38;14.57;;;;;;;-4.50;85.27;100961.50;5073622;28;20060;-67
2022/12/13 06:49:11;;;;;;;32.03;16.35;;;;;;;-4.48;85.53;100959.72;5058879;28;20037;-66
2022/12/13 06:51:36;;;;;;;33.70;15.38;;;;;;;-4.47;85.19;100954.44;5058419;28;20393;-66
2022/12/13 06:54:01;;;;;;;33.28;18.40;;;;;;;-4.47;85.88;100950.97;5059368;28;20039;-66
2022/12/13 06:56:27;;;;;;;31.73;15.77;;;;;;;-4.44;85.47;100945.69;5057760;28;20033;-67
2022/12/13 06:58:53;;;;;;;34.13;16.98;;;;;;;-4.44;85.37;100943.06;5058867;28;20024;-67
2022/12/13 07:01:18;;;;;;;37.83;14.70;;;;;;;-4.45;84.32;100951.81;5034296;28;20378;-66
2022/12/13 07:03:44;;;;;;;30.50;14.68;;;;;;;-4.47;83.46;100956.22;5052630;28;20029;-67
2022/12/13 07:06:18;;;;;;;35.45;16.92;;;;;;;-4.50;83.94;100951.00;5057536;28;20055;-66
2022/12/13 07:08:48;;;;;;;34.13;16.58;;;;;;;-4.52;84.24;100950.13;5058739;28;20032;-66
2022/12/13 07:11:14;;;;;;;;;;;;;;;-4.46;84.38;100947.47;5039826;28;20032;-66
2022/12/13 07:13:42;;;;;;;34.65;18.73;;;;;;;-4.49;85.11;100953.63;5051528;28;19913;-66
2022/12/13 07:16:07;;;;;;;34.42;16.42;;;;;;;-4.47;85.04;100948.34;5052493;28;20040;-67
2022/12/13 07:18:33;;;;;;;36.03;17.77;;;;;;;-4.47;85.21;100943.09;5057779;28;20032;-66
2022/12/13 07:20:58;;;;;;;40.40;17.48;;;;;;;-4.46;85.53;100950.09;5060136;28;20060;-66
2022/12/13 07:23:23;;;;;;;34.55;16.95;;;;;;;-4.45;85.32;100941.31;5058219;28;20029;-67
2022/12/13 07:25:53;;;;;;;37.58;18.20;;;;;;;-4.45;85.11;100939.59;5042241;28;20016;-66
2022/12/13 07:28:19;;;;;;;37.72;17.02;;;;;;;-4.47;84.61;100946.59;5062503;28;20029;-66
2022/12/13 07:30:45;;;;;;;33.33;17.15;;;;;;;-4.46;85.67;100942.22;5059949;28;20049;-68
2022/12/13 07:33:11;;;;;;;35.70;16.42;;;;;;;-4.43;86.52;100944.81;5052961;28;20028;-70
2022/12/13 07:35:37;;;;;;;33.53;15.65;;;;;;;-4.41;87.24;100950.91;5052893;28;20025;-68
2022/12/13 07:38:03;;;;;;;32.92;15.77;;;;;;;-4.40;87.48;100947.41;5058082;28;20104;-68
2022/12/13 07:40:28;;;;;;;35.03;16.35;;;;;;;-4.36;87.90;100954.38;5063704;28;20025;-66
2022/12/13 07:42:55;;;;;;;38.85;18.38;;;;;;;-4.30;88.20;100956.94;5056141;28;20495;-70
2022/12/13 07:45:21;;;;;;;35.25;18.60;;;;;;;-4.28;87.94;100952.50;5038284;28;20024;-67
2022/12/13 07:47:47;;;;;;;34.42;16.42;;;;;;;-4.25;87.88;100949.00;5060823;28;20025;-67
2022/12/13 07:50:13;;;;;;;38.25;18.85;;;;;;;-4.24;87.92;100948.97;5061497;28;20052;-68
2022/12/13 07:52:39;;;;;;;34.88;16.95;;;;;;;-4.19;87.46;100963.81;5043935;28;20025;-69
2022/12/13 07:55:06;;;;;;;33.45;16.25;;;;;;;-4.17;87.33;100962.91;5060754;28;20024;-68
2022/12/13 07:57:32;;;;;;;33.20;17.02;;;;;;;-4.13;87.68;100964.63;5058132;28;20025;-68
2022/12/13 07:59:57;;;;;;;37.00;18.75;;;;;;;-4.11;87.76;100965.47;5058100;28;20083;-67
2022/12/13 08:02:23;;;;;;;35.47;18.50;;;;;;;-4.08;87.96;100954.94;5055646;28;20029;-69
2022/12/13 08:04:48;;;;;;;35.67;19.40;;;;;;;-4.06;87.88;100953.16;5055032;28;20026;-68
2022/12/13 08:07:14;;;;;;;37.13;17.38;;;;;;;-4.05;88.44;100948.78;5050696;28;20029;-71
2022/12/13 08:09:39;;;;;;;38.58;19.98;;;;;;;-4.05;88.75;100954.03;5052174;28;20507;-68
2022/12/13 08:12:04;;;;;;;38.05;19.00;;;;;;;-4.05;88.96;100948.78;5060171;28;20048;-67
2022/12/13 08:14:30;;;;;;;42.42;19.90;;;;;;;-4.04;89.13;100955.78;5059934;28;20063;-67
2022/12/13 08:16:56;;;;;;;36.08;19.05;;;;;;;-4.03;88.63;100954.88;5060974;28;20068;-70
2022/12/13 08:19:21;;;;;;;39.25;19.80;;;;;;;-3.97;88.41;100967.06;5057550;28;20025;-68
2022/12/13 08:21:46;;;;;;;36.83;19.38;;;;;;;-3.98;89.07;100963.59;5046229;28;20033;-69
2022/12/13 08:24:12;;;;;;;37.90;19.77;;;;;;;-3.97;88.83;100957.44;5029937;28;20021;-70
2022/12/13 08:26:37;;;;;;;37.67;19.48;;;;;;;-3.95;88.71;100966.16;5049167;28;20028;-70
2022/12/13 08:29:03;;;;;;;36.63;18.88;;;;;;;-3.93;88.66;100969.63;5033044;28;20537;-70
2022/12/13 08:31:29;;;;;;;37.17;18.42;;;;;;;-3.95;88.79;100968.78;5050819;28;20045;-71
2022/12/13 08:33:55;;;;;;;36.67;20.80;;;;;;;-3.89;88.79;100970.50;5048585;28;20146;-70
2022/12/13 08:36:23;;;;;;;36.08;19.23;;;;;;;-3.83;88.71;100969.53;5026091;28;20115;-70
2022/12/13 08:38:49;;;;;;;45.65;20.35;;;;;;;-3.78;88.68;100973.81;5049270;28;20025;-69
2022/12/13 08:41:14;;;;;;;40.58;20.83;;;;;;;-3.77;88.79;100962.44;5032136;28;20021;-70
2022/12/13 08:43:40;;;;;;;36.63;20.23;;;;;;;-3.75;88.61;100967.69;5050328;28;20040;-69
2022/12/13 08:46:06;;;;;;;39.55;20.27;;;;;;;-3.72;88.64;100970.25;5051041;28;20029;-70
2022/12/13 08:48:32;;;;;;;37.20;18.77;;;;;;;-3.72;88.64;100973.78;5051655;28;20029;-69
2022/12/13 08:51:02;;;;;;;41.40;19.00;;;;;;;-3.68;88.71;100974.59;5052067;28;20021;-70
2022/12/13 08:53:28;;;;;;;36.70;20.92;;;;;;;-3.62;88.92;100968.41;5034191;28;20017;-69
2022/12/13 08:55:58;;;;;;;41.30;20.77;;;;;;;-3.56;88.79;100978.81;5047736;28;20366;-69
2022/12/13 08:58:23;;;;;;;37.85;19.48;;;;;;;-3.53;88.67;100984.94;5044449;28;20061;-69
2022/12/13 09:00:48;;;;;;;39.72;20.25;;;;;;;-3.51;88.57;100993.66;5051372;28;20547;-69
2022/12/13 09:03:13;;;;;;;33.95;18.27;;;;;;;-3.42;88.66;100990.03;5051765;28;20032;-70
2022/12/13 09:05:39;;;;;;;40.42;18.85;;;;;;;-3.37;88.45;100976.81;5054552;28;20024;-70
2022/12/13 09:08:04;;;;;;;40.60;21.40;;;;;;;-3.32;88.80;100972.38;5053934;28;20127;-70
2022/12/13 09:10:30;;;;;;;39.63;20.77;;;;;;;-3.26;88.50;100988.06;5053622;28;20033;-70
2022/12/13 09:12:59;;;;;;;42.22;21.20;;;;;;;-3.25;88.65;100989.81;5036447;28;20480;-70
2022/12/13 09:15:26;;;;;;;38.67;20.20;;;;;;;-3.24;88.19;100982.78;5035721;28;20033;-69
2022/12/13 09:17:51;;;;;;;37.97;20.23;;;;;;;-3.25;88.29;100979.28;5053539;28;20036;-69
2022/12/13 09:20:17;;;;;;;35.55;19.42;;;;;;;-3.21;88.04;100982.72;5052732;28;20029;-70
2022/12/13 09:22:42;;;;;;;38.28;20.27;;;;;;;-3.17;88.11;100987.06;5053547;28;20031;-69
2022/12/13 09:25:08;;;;;;;35.83;19.50;;;;;;;-3.16;87.91;100988.81;5054077;28;20396;-69
2022/12/13 09:27:33;;;;;;;41.30;21.67;;;;;;;-3.21;87.91;100988.84;5051492;28;20096;-70
2022/12/13 09:29:59;;;;;;;34.40;17.95;;;;;;;-3.16;88.29;100986.19;5053594;28;20073;-70
2022/12/13 09:32:26;;;;;;;38.20;19.70;;;;;;;-3.12;88.21;100979.09;5053556;28;20598;-69
2022/12/13 09:34:51;;;;;;;36.20;17.83;;;;;;;-3.05;87.86;100983.38;5035231;28;20021;-69
2022/12/13 09:37:16;;;;;;;38.55;19.75;;;;;;;-3.02;87.61;100975.44;5053637;28;20025;-69
2022/12/13 09:39:41;;;;;;;35.97;19.85;;;;;;;-2.93;87.68;100979.69;5035711;28;20039;-69
2022/12/13 09:42:19;;;;;;;39.33;20.67;;;;;;;-2.85;88.03;100981.31;5052342;28;20029;-67
2022/12/13 09:44:51;;;;;;;42.97;22.50;;;;;;;-2.82;87.46;100973.38;5051582;28;20079;-68
2022/12/13 09:47:36;;;;;;;34.80;19.50;;;;;;;-2.82;87.39;100980.41;5032508;28;20504;-70
2022/12/13 09:50:25;;;;;;;41.05;20.13;;;;;;;-2.78;87.37;100975.94;5051492;28;20400;-70
2022/12/13 09:52:50;;;;;;;39.63;19.17;;;;;;;-2.76;87.36;100974.19;5049550;28;21872;-69
2022/12/13 09:55:30;;;;;;;41.28;22.40;;;;;;;-2.74;87.57;100975.00;5049453;28;20174;-70
2022/12/13 09:57:57;;;;;;;42.75;22.40;;;;;;;-2.70;87.46;100968.81;5031116;28;20112;-69
2022/12/13 10:00:27;;;;;;;40.47;21.08;;;;;;;-2.64;87.33;100968.72;5031706;28;20033;-69
2022/12/13 10:02:57;;;;;;;43.05;21.38;;;;;;;-2.58;87.31;100971.22;5049069;28;20021;-69
2022/12/13 10:05:34;;;;;;;;;;;;;;;-2.49;87.48;100972.84;5028520;28;20021;-69
2022/12/13 10:08:10;;;;;;;42.30;21.67;;;;;;;-2.46;86.89;100964.88;5050058;28;20016;-70
2022/12/13 10:10:35;;;;;;;43.92;20.55;;;;;;;-2.41;86.72;100965.69;5050288;28;20387;-69
2022/12/13 10:13:13;;;;;;;39.35;21.25;;;;;;;-2.37;85.59;100958.59;5050918;28;20136;-69
2022/12/13 10:15:45;;;;;;;44.60;21.55;;;;;;;-2.43;85.89;100948.19;5031152;28;20035;-69
2022/12/13 10:18:18;;;;;;;42.47;21.98;;;;;;;-2.44;86.36;100955.22;5049850;28;20016;-69
2022/12/13 10:20:47;;;;;;;43.00;22.52;;;;;;;-2.42;86.56;100953.41;5036923;28;20037;-69
2022/12/13 10:23:13;;;;;;;39.78;22.33;;;;;;;-2.41;86.43;100949.03;5062966;28;20223;-69
2022/12/13 10:25:53;;;;;;;42.42;22.70;;;;;;;-2.39;86.11;100969.16;5067194;28;20033;-68
2022/12/13 10:28:29;;;;;;;38.97;21.50;;;;;;;-2.39;86.27;100955.13;5052301;28;20056;-70
2022/12/13 10:30:55;;;;;;;40.88;22.23;;;;;;;-2.36;86.34;100934.88;5045217;28;20067;-70
2022/12/13 10:33:23;;;;;;;40.70;20.20;;;;;;;-2.33;85.72;100933.94;5064033;28;20029;-69
2022/12/13 10:36:02;;;;;;;44.60;21.52;;;;;;;-2.27;85.83;100936.47;5065679;28;20096;-70
2022/12/13 10:38:30;;;;;;;37.78;20.45;;;;;;;-2.30;85.90;100933.88;5064256;28;20024;-70
2022/12/13 10:40:56;;;;;;;38.38;20.13;;;;;;;-2.33;85.12;100934.84;5065649;28;20495;-70
2022/12/13 10:43:24;;;;;;;36.05;20.90;;;;;;;-2.30;85.33;100939.16;5061099;28;20086;-66
2022/12/13 10:45:52;;;;;;;37.72;19.38;;;;;;;-2.29;84.96;100939.13;5042781;28;20032;-70
2022/12/13 10:48:21;;;;;;;36.90;19.67;;;;;;;-2.32;85.42;100927.78;5046793;28;20476;-67
2022/12/13 10:51:00;;;;;;;37.42;19.65;;;;;;;-2.26;85.76;100930.31;5049116;28;20127;-72
2022/12/13 10:53:32;;;;;;;42.92;22.55;;;;;;;-2.22;85.39;100926.72;5063447;28;20439;-70
2022/12/13 10:55:58;;;;;;;42.58;20.27;;;;;;;-2.15;85.53;100912.53;5066840;28;20039;-69
2022/12/13 10:58:37;;;;;;;42.72;20.30;;;;;;;-2.09;85.57;100905.41;5060469;28;20032;-71
2022/12/13 11:01:18;;;;;;;37.95;19.80;;;;;;;-1.98;85.89;100911.34;5041662;28;20056;-69
2022/12/13 11:03:55;;;;;;;36.63;18.63;;;;;;;-1.94;85.18;100905.09;5066710;28;20029;-70
2022/12/13 11:06:20;;;;;;;40.22;19.50;;;;;;;-1.91;84.93;100888.38;5062776;28;20021;-70
2022/12/13 11:08:46;;;;;;;46.10;21.00;;;;;;;-1.85;85.40;100893.50;5058911;28;20021;-70
2022/12/13 11:11:15;;;;;;;41.40;22.10;;;;;;;-1.79;84.77;100896.91;5068650;28;20048;-70
2022/12/13 11:13:45;;;;;;;45.05;19.38;;;;;;;-1.75;84.88;100900.31;5059834;28;20033;-71
2022/12/13 11:16:33;;;;;;;40.92;20.20;;;;;;;-1.66;85.16;100886.94;5041092;28;20108;-70